createdAt,value
2019-05-30T00:00:43.171Z,859.28
2019-05-30T00:01:43.172Z,859.27
2019-05-30T00:02:43.191Z,859.26
2019-05-30T00:03:43.139Z,859.29
2019-05-30T00:04:43.130Z,859.24
2019-05-30T00:05:43.129Z,859.31
2019-05-30T00:06:43.129Z,859.32
2019-05-30T00:07:43.099Z,859.31
2019-05-30T00:08:43.128Z,859.30
2019-05-30T00:09:43.082Z,859.31
2019-05-30T00:10:43.078Z,859.31
2019-05-30T00:11:43.055Z,859.31
2019-05-30T00:12:43.088Z,859.34
2019-05-30T00:13:43.038Z,859.34
2019-05-30T00:14:43.017Z,859.31
2019-05-30T00:15:43.018Z,859.35
2019-05-30T00:16:43.020Z,859.28
2019-05-30T00:17:42.997Z,859.31
2019-05-30T00:18:43.026Z,859.36
2019-05-30T00:19:42.991Z,859.33
2019-05-30T00:20:42.955Z,859.35
2019-05-30T00:21:42.952Z,859.40
2019-05-30T00:22:42.936Z,859.36
2019-05-30T00:23:42.923Z,859.34
2019-05-30T00:24:42.953Z,859.34
2019-05-30T00:25:42.907Z,859.32
2019-05-30T00:26:42.894Z,859.29
2019-05-30T00:27:42.919Z,859.25
2019-05-30T00:28:42.912Z,859.30
2019-05-30T00:29:42.872Z,859.32
2019-05-30T00:30:42.893Z,859.30
2019-05-30T00:31:42.842Z,859.31
2019-05-30T00:32:42.831Z,859.30
2019-05-30T00:33:42.820Z,859.32
2019-05-30T00:34:42.809Z,859.33
2019-05-30T00:35:42.806Z,859.30
2019-05-30T00:36:42.827Z,859.32
2019-05-30T00:37:42.779Z,859.30
2019-05-30T00:38:42.769Z,859.26
2019-05-30T00:39:42.757Z,859.23
2019-05-30T00:40:42.751Z,859.28
2019-05-30T00:41:42.729Z,859.23
2019-05-30T00:42:42.766Z,859.25
2019-05-30T00:43:42.707Z,859.27
2019-05-30T00:44:42.708Z,859.25
2019-05-30T00:45:42.689Z,859.27
2019-05-30T00:46:42.678Z,859.30
2019-05-30T00:47:42.705Z,859.27
2019-05-30T00:48:42.688Z,859.27
2019-05-30T00:49:42.654Z,859.28
2019-05-30T00:50:42.637Z,859.30
2019-05-30T00:51:42.635Z,859.25
2019-05-30T00:52:42.615Z,859.26
2019-05-30T00:53:42.597Z,859.27
2019-05-30T00:54:42.636Z,859.21
2019-05-30T00:55:42.586Z,859.25
2019-05-30T00:56:42.574Z,859.24
2019-05-30T00:57:42.564Z,859.24
2019-05-30T00:58:42.555Z,859.24
2019-05-30T00:59:42.594Z,859.24
2019-05-30T01:00:44.181Z,859.24
2019-05-30T01:01:42.527Z,859.22
2019-05-30T01:02:42.532Z,859.26
2019-05-30T01:03:42.491Z,859.25
2019-05-30T01:04:42.495Z,859.22
2019-05-30T01:05:42.482Z,859.24
2019-05-30T01:06:42.531Z,859.22
2019-05-30T01:07:42.460Z,859.19
2019-05-30T01:08:42.439Z,859.21
2019-05-30T01:09:42.444Z,859.22
2019-05-30T01:10:42.421Z,859.25
2019-05-30T01:11:42.413Z,859.26
2019-05-30T01:12:42.442Z,859.22
2019-05-30T01:13:42.391Z,859.22
2019-05-30T01:14:42.410Z,859.23
2019-05-30T01:15:42.368Z,859.24
2019-05-30T01:16:42.806Z,859.19
2019-05-30T01:17:42.349Z,859.24
2019-05-30T01:18:42.329Z,859.23
2019-05-30T01:19:42.322Z,859.20
2019-05-30T01:20:42.308Z,859.14
2019-05-30T01:21:42.303Z,859.21
2019-05-30T01:22:42.324Z,859.19
2019-05-30T01:23:42.278Z,859.18
2019-05-30T01:24:42.268Z,859.17
2019-05-30T01:25:42.262Z,859.18
2019-05-30T01:26:42.284Z,859.20
2019-05-30T01:27:42.236Z,859.20
2019-05-30T01:28:42.307Z,859.15
2019-05-30T01:29:42.216Z,859.16
2019-05-30T01:30:58.625Z,859.20
2019-05-30T01:31:43.229Z,859.23
2019-05-30T01:32:42.195Z,859.17
2019-05-30T01:33:42.177Z,859.19
2019-05-30T01:34:42.167Z,859.20
2019-05-30T01:35:42.183Z,859.17
2019-05-30T01:36:42.158Z,859.19
2019-05-30T01:37:42.134Z,859.16
2019-05-30T01:38:42.150Z,859.17
2019-05-30T01:39:42.104Z,859.15
2019-05-30T01:40:42.112Z,859.13
2019-05-30T01:41:42.244Z,859.16
2019-05-30T01:42:42.072Z,859.14
2019-05-30T01:43:42.067Z,859.14
2019-05-30T01:44:42.055Z,859.19
2019-05-30T01:45:42.044Z,859.15
2019-05-30T01:46:42.030Z,859.14
2019-05-30T01:47:42.050Z,859.17
2019-05-30T01:48:42.009Z,859.16
2019-05-30T01:49:42.002Z,859.17
2019-05-30T01:50:41.981Z,859.22
2019-05-30T01:51:41.980Z,859.20
2019-05-30T01:52:41.962Z,859.15
2019-05-30T01:53:41.989Z,859.12
2019-05-30T01:54:41.950Z,859.13
2019-05-30T01:55:41.935Z,859.18
2019-05-30T01:56:41.926Z,859.16
2019-05-30T01:57:41.924Z,859.14
2019-05-30T01:58:41.898Z,859.16
2019-05-30T01:59:41.918Z,859.14
2019-05-30T02:00:41.917Z,859.15
2019-05-30T02:01:41.871Z,859.16
2019-05-30T02:02:41.855Z,859.19
2019-05-30T02:03:41.898Z,859.20
2019-05-30T02:04:41.878Z,859.17
2019-05-30T02:05:41.836Z,859.16
2019-05-30T02:06:41.814Z,859.18
2019-05-30T02:07:41.810Z,859.14
2019-05-30T02:08:41.796Z,859.18
2019-05-30T02:09:41.786Z,859.19
2019-05-30T02:10:41.816Z,859.19
2019-05-30T02:11:41.771Z,859.18
2019-05-30T02:12:41.753Z,859.15
2019-05-30T02:13:41.754Z,859.18
2019-05-30T02:14:41.734Z,859.14
2019-05-30T02:15:41.712Z,859.14
2019-05-30T02:16:41.768Z,859.14
2019-05-30T02:17:41.714Z,859.16
2019-05-30T02:18:41.692Z,859.15
2019-05-30T02:19:41.721Z,859.15
2019-05-30T02:20:41.662Z,859.17
2019-05-30T02:21:41.651Z,859.16
2019-05-30T02:22:41.681Z,859.20
2019-05-30T02:23:41.630Z,859.22
2019-05-30T02:24:41.620Z,859.19
2019-05-30T02:25:41.609Z,859.18
2019-05-30T02:26:41.639Z,859.14
2019-05-30T02:27:41.605Z,859.16
2019-05-30T02:28:41.617Z,859.15
2019-05-30T02:29:41.568Z,859.16
2019-05-30T02:30:41.560Z,859.22
2019-05-30T02:31:41.551Z,859.22
2019-05-30T02:32:41.572Z,859.21
2019-05-30T02:33:41.554Z,859.22
2019-05-30T02:34:41.520Z,859.22
2019-05-30T02:35:41.506Z,859.29
2019-05-30T02:36:41.503Z,859.25
2019-05-30T02:37:41.475Z,859.28
2019-05-30T02:38:41.522Z,859.27
2019-05-30T02:39:41.472Z,859.27
2019-05-30T02:40:41.452Z,859.26
2019-05-30T02:41:41.458Z,859.27
2019-05-30T02:42:41.444Z,859.25
2019-05-30T02:43:41.418Z,859.29
2019-05-30T02:44:41.486Z,859.27
2019-05-30T02:45:41.396Z,859.32
2019-05-30T02:46:41.390Z,859.27
2019-05-30T02:47:41.374Z,859.28
2019-05-30T02:48:57.208Z,859.29
2019-05-30T02:49:42.400Z,859.29
2019-05-30T02:50:41.344Z,859.24
2019-05-30T02:51:41.331Z,859.25
2019-05-30T02:52:41.353Z,859.27
2019-05-30T02:53:41.312Z,859.24
2019-05-30T02:54:41.302Z,859.26
2019-05-30T02:55:41.324Z,859.24
2019-05-30T02:56:41.281Z,859.20
2019-05-30T02:57:41.264Z,859.26
2019-05-30T02:58:41.261Z,859.25
2019-05-30T02:59:41.241Z,859.27
2019-05-30T03:00:41.291Z,859.25
2019-05-30T03:01:59.041Z,859.27
2019-05-30T03:02:42.211Z,859.28
2019-05-30T03:03:41.240Z,859.30
2019-05-30T03:04:41.188Z,859.29
2019-05-30T03:05:41.181Z,859.29
2019-05-30T03:06:41.169Z,859.32
2019-05-30T03:07:41.205Z,859.31
2019-05-30T03:08:41.165Z,859.31
2019-05-30T03:09:41.138Z,859.29
2019-05-30T03:10:41.128Z,859.28
2019-05-30T03:11:41.117Z,859.30
2019-05-30T03:12:41.107Z,859.31
2019-05-30T03:13:41.138Z,859.31
2019-05-30T03:14:41.088Z,859.33
2019-05-30T03:15:41.076Z,859.33
2019-05-30T03:16:41.068Z,859.34
2019-05-30T03:17:41.055Z,859.35
2019-05-30T03:18:41.048Z,859.39
2019-05-30T03:19:41.081Z,859.38
2019-05-30T03:20:41.016Z,859.35
2019-05-30T03:21:41.026Z,859.38
2019-05-30T03:22:41.015Z,859.40
2019-05-30T03:23:40.991Z,859.43
2019-05-30T03:24:40.983Z,859.38
2019-05-30T03:25:41.015Z,859.44
2019-05-30T03:26:40.959Z,859.42
2019-05-30T03:27:40.946Z,859.44
2019-05-30T03:28:40.980Z,859.47
2019-05-30T03:29:40.930Z,859.44
2019-05-30T03:30:40.913Z,859.49
2019-05-30T03:31:40.911Z,859.48
2019-05-30T03:33:43.030Z,859.50
2019-05-30T03:34:40.878Z,859.48
2019-05-30T03:35:43.596Z,859.53
2019-05-30T03:36:40.877Z,859.53
2019-05-30T03:37:40.907Z,859.53
2019-05-30T03:38:40.830Z,859.52
2019-05-30T03:39:40.854Z,859.52
2019-05-30T03:40:40.812Z,859.51
2019-05-30T03:41:40.799Z,859.53
2019-05-30T03:42:40.792Z,859.52
2019-05-30T03:43:40.768Z,859.53
2019-05-30T03:44:40.806Z,859.53
2019-05-30T03:45:40.774Z,859.54
2019-05-30T03:46:40.738Z,859.52
2019-05-30T03:47:40.739Z,859.54
2019-05-30T03:48:40.726Z,859.52
2019-05-30T03:49:40.706Z,859.55
2019-05-30T03:50:40.736Z,859.53
2019-05-30T03:51:40.687Z,859.56
2019-05-30T03:52:40.676Z,859.56
2019-05-30T03:53:40.657Z,859.56
2019-05-30T03:54:40.696Z,859.58
2019-05-30T03:55:40.648Z,859.59
2019-05-30T03:56:40.687Z,859.62
2019-05-30T03:57:40.635Z,859.59
2019-05-30T03:58:40.614Z,859.63
2019-05-30T03:59:40.609Z,859.68
2019-05-30T04:00:40.587Z,859.60
2019-05-30T04:01:40.575Z,859.62
2019-05-30T04:02:56.205Z,859.64
2019-05-30T04:03:41.556Z,859.62
2019-05-30T04:04:40.561Z,859.68
2019-05-30T04:05:40.558Z,859.71
2019-05-30T04:06:40.523Z,859.67
2019-05-30T04:07:40.517Z,859.66
2019-05-30T04:08:40.557Z,859.65
2019-05-30T04:09:40.493Z,859.67
2019-05-30T04:10:40.478Z,859.67
2019-05-30T04:11:40.509Z,859.68
2019-05-30T04:12:40.500Z,859.64
2019-05-30T04:13:40.464Z,859.67
2019-05-30T04:14:40.438Z,859.64
2019-05-30T04:15:40.443Z,859.68
2019-05-30T04:16:40.436Z,859.69
2019-05-30T04:17:40.452Z,859.70
2019-05-30T04:18:40.389Z,859.71
2019-05-30T04:19:40.409Z,859.73
2019-05-30T04:20:40.377Z,859.71
2019-05-30T04:21:40.361Z,859.74
2019-05-30T04:22:40.375Z,859.77
2019-05-30T04:23:40.377Z,859.75
2019-05-30T04:24:40.328Z,859.78
2019-05-30T04:25:40.327Z,859.76
2019-05-30T04:26:40.314Z,859.77
2019-05-30T04:27:40.301Z,859.83
2019-05-30T04:28:40.285Z,859.80
2019-05-30T04:29:40.314Z,859.84
2019-05-30T04:30:40.267Z,859.85
2019-05-30T04:31:40.264Z,859.85
2019-05-30T04:32:40.248Z,859.88
2019-05-30T04:33:40.234Z,859.90
2019-05-30T04:34:40.224Z,859.91
2019-05-30T04:35:40.245Z,859.89
2019-05-30T04:36:40.203Z,859.89
2019-05-30T04:37:40.203Z,859.90
2019-05-30T04:38:40.175Z,859.96
2019-05-30T04:39:40.215Z,859.92
2019-05-30T04:40:40.162Z,859.96
2019-05-30T04:41:40.163Z,859.95
2019-05-30T04:42:40.185Z,859.96
2019-05-30T04:43:40.131Z,859.99
2019-05-30T04:44:40.112Z,859.96
2019-05-30T04:45:40.103Z,859.98
2019-05-30T04:46:40.090Z,859.98
2019-05-30T04:47:40.121Z,860.01
2019-05-30T04:48:40.070Z,859.98
2019-05-30T04:49:40.073Z,859.99
2019-05-30T04:50:40.050Z,859.99
2019-05-30T04:51:40.047Z,859.98
2019-05-30T04:52:40.022Z,859.93
2019-05-30T04:53:40.055Z,859.98
2019-05-30T04:54:40.007Z,859.98
2019-05-30T04:55:39.988Z,859.96
2019-05-30T04:56:39.985Z,859.95
2019-05-30T04:57:39.969Z,859.97
2019-05-30T04:58:42.160Z,860.00
2019-05-30T04:59:39.985Z,860.00
2019-05-30T05:00:39.949Z,860.01
2019-05-30T05:01:39.926Z,859.99
2019-05-30T05:02:39.957Z,860.02
2019-05-30T05:03:45.739Z,859.95
2019-05-30T05:04:40.898Z,860.01
2019-05-30T05:05:39.886Z,860.00
2019-05-30T05:06:39.875Z,860.03
2019-05-30T05:07:39.885Z,859.99
2019-05-30T05:08:39.898Z,860.00
2019-05-30T05:09:39.843Z,860.06
2019-05-30T05:10:39.835Z,860.04
2019-05-30T05:11:39.824Z,860.03
2019-05-30T05:12:39.813Z,860.09
2019-05-30T05:13:39.798Z,860.07
2019-05-30T05:14:39.833Z,860.06
2019-05-30T05:15:39.782Z,860.11
2019-05-30T05:16:39.791Z,860.10
2019-05-30T05:17:39.770Z,860.06
2019-05-30T05:18:39.754Z,860.09
2019-05-30T05:19:39.781Z,860.05
2019-05-30T05:20:39.737Z,860.05
2019-05-30T05:21:39.730Z,860.09
2019-05-30T05:22:40.913Z,860.11
2019-05-30T05:23:39.692Z,860.14
2019-05-30T05:24:39.689Z,860.11
2019-05-30T05:25:39.709Z,860.10
2019-05-30T05:26:39.659Z,860.13
2019-05-30T05:27:39.671Z,860.14
2019-05-30T05:28:39.686Z,860.09
2019-05-30T05:29:39.627Z,860.12
2019-05-30T05:30:39.697Z,860.09
2019-05-30T05:31:39.656Z,860.14
2019-05-30T05:32:39.598Z,860.13
2019-05-30T05:33:55.486Z,860.13
2019-05-30T05:34:40.584Z,860.15
2019-05-30T05:35:39.734Z,860.16
2019-05-30T05:36:39.546Z,860.18
2019-05-30T05:37:39.579Z,860.19
2019-05-30T05:38:39.543Z,860.17
2019-05-30T05:39:39.515Z,860.17
2019-05-30T05:40:39.505Z,860.19
2019-05-30T05:41:39.504Z,860.19
2019-05-30T05:42:39.493Z,860.19
2019-05-30T05:43:39.514Z,860.27
2019-05-30T05:44:39.469Z,860.20
2019-05-30T05:45:39.465Z,860.27
2019-05-30T05:46:39.444Z,860.23
2019-05-30T05:47:39.456Z,860.21
2019-05-30T05:48:39.424Z,860.23
2019-05-30T05:49:39.463Z,860.23
2019-05-30T05:50:39.400Z,860.25
2019-05-30T05:51:39.392Z,860.28
2019-05-30T05:52:39.384Z,860.26
2019-05-30T05:53:39.372Z,860.22
2019-05-30T05:54:39.403Z,860.21
2019-05-30T05:55:39.385Z,860.28
2019-05-30T05:56:39.342Z,860.27
2019-05-30T05:57:39.327Z,860.28
2019-05-30T05:58:39.322Z,860.28
2019-05-30T05:59:39.311Z,860.27
2019-05-30T06:00:39.341Z,860.33
2019-05-30T06:01:39.300Z,860.29
2019-05-30T06:02:39.276Z,860.30
2019-05-30T06:03:39.261Z,860.26
2019-05-30T06:04:39.258Z,860.29
2019-05-30T06:05:52.231Z,860.33
2019-05-30T06:06:40.270Z,860.35
2019-05-30T06:07:39.227Z,860.34
2019-05-30T06:08:39.218Z,860.36
2019-05-30T06:09:39.207Z,860.35
2019-05-30T06:10:39.194Z,860.36
2019-05-30T06:11:39.176Z,860.36
2019-05-30T06:12:39.237Z,860.36
2019-05-30T06:13:39.157Z,860.42
2019-05-30T06:14:39.143Z,860.39
2019-05-30T06:15:39.147Z,860.40
2019-05-30T06:16:39.145Z,860.39
2019-05-30T06:17:39.130Z,860.42
2019-05-30T06:18:39.135Z,860.42
2019-05-30T06:19:46.359Z,860.43
2019-05-30T06:20:40.074Z,860.41
2019-05-30T06:21:52.998Z,860.45
2019-05-30T06:22:40.078Z,860.45
2019-05-30T06:23:39.064Z,860.48
2019-05-30T06:24:39.073Z,860.46
2019-05-30T06:25:39.024Z,860.44
2019-05-30T06:26:39.014Z,860.43
2019-05-30T06:27:39.011Z,860.44
2019-05-30T06:28:38.994Z,860.47
2019-05-30T06:29:38.988Z,860.47
2019-05-30T06:30:39.014Z,860.46
2019-05-30T06:31:38.961Z,860.47
2019-05-30T06:32:38.973Z,860.51
2019-05-30T06:33:38.980Z,860.47
2019-05-30T06:34:39.967Z,860.52
2019-05-30T06:35:38.922Z,860.57
2019-05-30T06:36:38.921Z,860.57
2019-05-30T06:37:38.901Z,860.56
2019-05-30T06:38:38.888Z,860.54
2019-05-30T06:39:38.929Z,860.57
2019-05-30T06:40:38.881Z,860.55
2019-05-30T06:41:38.849Z,860.54
2019-05-30T06:42:38.849Z,860.58
2019-05-30T06:43:38.863Z,860.57
2019-05-30T06:44:38.822Z,860.56
2019-05-30T06:45:38.848Z,860.58
2019-05-30T06:46:38.805Z,860.56
2019-05-30T06:47:38.789Z,860.60
2019-05-30T06:48:38.795Z,860.59
2019-05-30T06:49:38.775Z,860.61
2019-05-30T06:50:38.813Z,860.64
2019-05-30T06:51:38.795Z,860.61
2019-05-30T06:52:38.735Z,860.66
2019-05-30T06:53:38.736Z,860.69
2019-05-30T06:54:38.715Z,860.65
2019-05-30T06:55:38.705Z,860.68
2019-05-30T06:56:38.725Z,860.69
2019-05-30T06:57:38.727Z,860.68
2019-05-30T06:58:48.065Z,860.72
2019-05-30T06:59:39.663Z,860.75
2019-05-30T07:00:38.663Z,860.73
2019-05-30T07:01:38.639Z,860.73
2019-05-30T07:02:38.708Z,860.76
2019-05-30T07:03:38.693Z,860.75
2019-05-30T07:04:50.961Z,860.75
2019-05-30T07:05:40.266Z,860.74
2019-05-30T07:06:38.926Z,860.76
2019-05-30T07:07:38.744Z,860.84
2019-05-30T07:08:38.561Z,860.80
2019-05-30T07:09:38.601Z,860.79
2019-05-30T07:10:38.553Z,860.76
2019-05-30T07:11:38.530Z,860.81
2019-05-30T07:12:38.523Z,860.80
2019-05-30T07:13:38.511Z,860.83
2019-05-30T07:14:38.499Z,860.88
2019-05-30T07:15:38.528Z,860.76
2019-05-30T07:16:38.502Z,860.83
2019-05-30T07:17:38.473Z,860.79
2019-05-30T07:18:38.483Z,860.81
2019-05-30T07:19:38.440Z,860.85
2019-05-30T07:20:38.441Z,860.81
2019-05-30T07:21:38.497Z,860.85
2019-05-30T07:22:38.416Z,860.85
2019-05-30T07:23:39.541Z,860.80
2019-05-30T07:24:38.399Z,860.85
2019-05-30T07:25:38.402Z,860.88
2019-05-30T07:26:38.374Z,860.84
2019-05-30T07:27:38.409Z,860.86
2019-05-30T07:28:38.346Z,860.85
2019-05-30T07:29:38.376Z,860.92
2019-05-30T07:30:38.335Z,860.87
2019-05-30T07:31:38.318Z,860.91
2019-05-30T07:32:38.307Z,860.89
2019-05-30T07:33:38.295Z,860.91
2019-05-30T07:34:38.326Z,860.89
2019-05-30T07:35:38.277Z,860.96
2019-05-30T07:36:38.261Z,860.89
2019-05-30T07:37:38.286Z,860.89
2019-05-30T07:38:38.274Z,860.93
2019-05-30T07:39:38.222Z,860.91
2019-05-30T07:40:38.253Z,860.95
2019-05-30T07:41:38.230Z,860.94
2019-05-30T07:42:38.194Z,860.98
2019-05-30T07:43:38.256Z,860.95
2019-05-30T07:44:38.172Z,860.91
2019-05-30T07:45:38.170Z,860.92
2019-05-30T07:46:38.155Z,860.92
2019-05-30T07:47:38.613Z,860.92
2019-05-30T07:48:38.602Z,860.93
2019-05-30T07:49:38.698Z,860.94
2019-05-30T07:50:38.804Z,860.97
2019-05-30T07:51:39.015Z,860.97
2019-05-30T07:52:39.024Z,860.94
2019-05-30T07:53:39.144Z,860.99
2019-05-30T07:54:39.170Z,860.96
2019-05-30T07:55:39.116Z,860.97
2019-05-30T07:56:38.140Z,860.98
2019-05-30T07:57:41.025Z,860.97
2019-05-30T07:58:38.028Z,860.97
2019-05-30T07:59:38.690Z,861.00
2019-05-30T08:00:38.006Z,860.98
2019-05-30T08:01:39.609Z,861.01
2019-05-30T08:02:38.056Z,861.02
2019-05-30T08:03:38.890Z,860.96
2019-05-30T08:04:37.966Z,860.99
2019-05-30T08:05:38.979Z,860.97
2019-05-30T08:06:37.993Z,860.95
2019-05-30T08:07:39.002Z,860.91
2019-05-30T08:08:38.160Z,860.94
2019-05-30T08:09:39.180Z,860.93
2019-05-30T08:10:38.212Z,860.91
2019-05-30T08:11:37.875Z,860.96
2019-05-30T08:12:38.389Z,860.95
2019-05-30T08:13:37.862Z,860.99
2019-05-30T08:14:37.849Z,860.97
2019-05-30T08:15:43.725Z,860.99
2019-05-30T08:16:38.822Z,860.99
2019-05-30T08:17:38.012Z,860.96
2019-05-30T08:18:37.995Z,860.98
2019-05-30T08:19:38.266Z,860.95
2019-05-30T08:20:38.092Z,860.98
2019-05-30T08:21:38.330Z,860.98
2019-05-30T08:22:38.321Z,861.01
2019-05-30T08:23:38.416Z,861.00
2019-05-30T08:24:38.839Z,860.98
2019-05-30T08:25:38.487Z,861.02
2019-05-30T08:26:38.470Z,861.04
2019-05-30T08:27:38.642Z,861.05
2019-05-30T08:28:38.675Z,861.05
2019-05-30T08:29:38.534Z,861.10
2019-05-30T08:30:38.705Z,861.07
2019-05-30T08:31:38.800Z,861.07
2019-05-30T08:32:38.893Z,861.09
2019-05-30T08:33:37.717Z,861.09
2019-05-30T08:34:38.748Z,861.09
2019-05-30T08:35:47.715Z,861.06
2019-05-30T08:36:39.182Z,861.07
2019-05-30T08:37:37.604Z,861.03
2019-05-30T08:38:37.636Z,861.11
2019-05-30T08:39:37.576Z,861.10
2019-05-30T08:40:37.813Z,861.08
2019-05-30T08:41:37.577Z,861.08
2019-05-30T08:42:38.448Z,861.11
2019-05-30T08:43:37.650Z,861.07
2019-05-30T08:44:38.033Z,861.08
2019-05-30T08:45:37.987Z,861.08
2019-05-30T08:46:37.928Z,861.04
2019-05-30T08:47:38.098Z,861.08
2019-05-30T08:48:38.322Z,861.03
2019-05-30T08:49:38.241Z,861.04
2019-05-30T08:50:41.337Z,861.07
2019-05-30T08:51:38.455Z,861.09
2019-05-30T08:52:38.633Z,861.15
2019-05-30T08:53:38.425Z,861.10
2019-05-30T08:54:38.546Z,861.13
2019-05-30T08:55:38.503Z,861.13
2019-05-30T08:56:38.531Z,861.12
2019-05-30T08:57:38.593Z,861.15
2019-05-30T08:58:38.664Z,861.14
2019-05-30T08:59:38.540Z,861.16
2019-05-30T09:00:37.403Z,861.15
2019-05-30T09:01:37.749Z,861.13
2019-05-30T09:02:37.342Z,861.15
2019-05-30T09:03:38.452Z,861.14
2019-05-30T09:04:37.920Z,861.17
2019-05-30T09:05:38.605Z,861.17
2019-05-30T09:06:37.817Z,861.12
2019-05-30T09:07:38.279Z,861.13
2019-05-30T09:08:37.961Z,861.12
2019-05-30T09:09:38.133Z,861.11
2019-05-30T09:10:37.824Z,861.09
2019-05-30T09:11:37.745Z,861.11
2019-05-30T09:12:38.486Z,861.13
2019-05-30T09:13:37.718Z,861.12
2019-05-30T09:14:37.871Z,861.13
2019-05-30T09:15:37.943Z,861.13
2019-05-30T09:16:37.187Z,861.08
2019-05-30T09:17:38.663Z,861.07
2019-05-30T09:18:38.583Z,861.06
2019-05-30T09:19:38.441Z,861.08
2019-05-30T09:20:38.439Z,861.09
2019-05-30T09:21:38.697Z,861.08
2019-05-30T09:22:38.064Z,861.07
2019-05-30T09:23:38.455Z,861.07
2019-05-30T09:24:38.473Z,861.04
2019-05-30T09:25:37.251Z,861.05
2019-05-30T09:26:38.525Z,861.03
2019-05-30T09:27:37.755Z,861.02
2019-05-30T09:28:37.746Z,861.02
2019-05-30T09:29:37.844Z,861.03
2019-05-30T09:30:38.233Z,860.98
2019-05-30T09:31:38.083Z,861.03
2019-05-30T09:32:38.338Z,861.03
2019-05-30T09:33:38.097Z,861.01
2019-05-30T09:34:37.015Z,861.06
2019-05-30T09:35:36.987Z,861.02
2019-05-30T09:36:36.973Z,861.03
2019-05-30T09:37:36.984Z,861.10
2019-05-30T09:38:36.991Z,861.05
2019-05-30T09:39:36.953Z,861.06
2019-05-30T09:40:36.969Z,861.04
2019-05-30T09:41:36.922Z,861.11
2019-05-30T09:42:36.959Z,861.09
2019-05-30T09:43:36.902Z,861.10
2019-05-30T09:44:36.894Z,861.08
2019-05-30T09:45:36.879Z,861.04
2019-05-30T09:46:36.871Z,861.09
2019-05-30T09:47:36.862Z,861.08
2019-05-30T09:48:36.900Z,861.12
2019-05-30T09:49:36.850Z,861.08
2019-05-30T09:50:36.890Z,861.08
2019-05-30T09:51:36.821Z,861.02
2019-05-30T09:52:36.807Z,861.00
2019-05-30T09:53:36.798Z,861.05
2019-05-30T09:54:36.839Z,861.08
2019-05-30T09:55:36.818Z,861.06
2019-05-30T09:56:36.767Z,861.06
2019-05-30T09:57:36.755Z,861.04
2019-05-30T09:58:36.793Z,861.09
2019-05-30T09:59:36.729Z,861.04
2019-05-30T10:00:36.723Z,861.07
2019-05-30T10:01:36.781Z,860.99
2019-05-30T10:02:36.701Z,860.97
2019-05-30T10:03:36.688Z,860.98
2019-05-30T10:04:36.707Z,861.01
2019-05-30T10:05:36.705Z,861.00
2019-05-30T10:06:36.657Z,861.02
2019-05-30T10:07:36.649Z,860.98
2019-05-30T10:08:36.668Z,861.07
2019-05-30T10:09:36.625Z,861.08
2019-05-30T10:10:36.635Z,861.01
2019-05-30T10:11:36.644Z,860.99
2019-05-30T10:12:36.594Z,860.98
2019-05-30T10:13:36.615Z,860.97
2019-05-30T10:14:36.581Z,860.96
2019-05-30T10:15:36.586Z,860.99
2019-05-30T10:16:36.560Z,861.00
2019-05-30T10:17:36.582Z,861.00
2019-05-30T10:18:36.524Z,861.05
2019-05-30T10:19:36.512Z,861.05
2019-05-30T10:20:36.501Z,861.03
2019-05-30T10:21:36.493Z,860.99
2019-05-30T10:22:36.483Z,860.98
2019-05-30T10:23:36.513Z,861.01
2019-05-30T10:24:36.463Z,861.01
2019-05-30T10:25:36.448Z,861.05
2019-05-30T10:26:36.452Z,861.03
2019-05-30T10:27:36.421Z,861.00
2019-05-30T10:28:36.410Z,861.06
2019-05-30T10:29:36.502Z,861.04
2019-05-30T10:30:36.392Z,861.00
2019-05-30T10:31:36.383Z,861.02
2019-05-30T10:32:36.368Z,861.03
2019-05-30T10:33:36.359Z,860.99
2019-05-30T10:34:36.339Z,861.01
2019-05-30T10:35:36.380Z,860.97
2019-05-30T10:36:44.341Z,860.98
2019-05-30T10:37:37.324Z,861.00
2019-05-30T10:38:36.299Z,860.96
2019-05-30T10:39:36.289Z,860.98
2019-05-30T10:40:36.320Z,860.94
2019-05-30T10:41:36.268Z,860.95
2019-05-30T10:42:36.268Z,861.00
2019-05-30T10:43:36.262Z,860.99
2019-05-30T10:44:36.259Z,860.92
2019-05-30T10:45:38.642Z,860.96
2019-05-30T10:46:36.288Z,860.93
2019-05-30T10:47:43.357Z,860.93
2019-05-30T10:48:36.960Z,860.94
2019-05-30T10:49:36.970Z,860.96
2019-05-30T10:50:36.958Z,860.94
2019-05-30T10:51:36.189Z,860.97
2019-05-30T10:52:36.174Z,861.02
2019-05-30T10:53:37.666Z,860.98
2019-05-30T10:54:36.180Z,861.00
2019-05-30T10:55:36.117Z,860.93
2019-05-30T10:56:36.147Z,860.93
2019-05-30T10:57:36.145Z,860.98
2019-05-30T10:58:36.095Z,860.95
2019-05-30T10:59:36.074Z,860.94
2019-05-30T11:00:36.073Z,860.94
2019-05-30T11:01:36.074Z,861.01
2019-05-30T11:02:36.954Z,861.02
2019-05-30T11:03:36.056Z,861.00
2019-05-30T11:04:36.048Z,861.00
2019-05-30T11:05:36.041Z,861.03
2019-05-30T11:06:35.994Z,860.98
2019-05-30T11:07:36.022Z,861.01
2019-05-30T11:08:36.012Z,860.99
2019-05-30T11:09:35.963Z,860.99
2019-05-30T11:10:35.962Z,860.96
2019-05-30T11:11:36.971Z,861.00
2019-05-30T11:12:35.943Z,860.98
2019-05-30T11:13:35.933Z,861.05
2019-05-30T11:14:35.972Z,861.04
2019-05-30T11:15:35.899Z,861.01
2019-05-30T11:16:35.881Z,861.04
2019-05-30T11:17:35.881Z,861.03
2019-05-30T11:18:35.870Z,861.03
2019-05-30T11:19:35.860Z,861.06
2019-05-30T11:20:35.888Z,861.04
2019-05-30T11:21:35.850Z,861.04
2019-05-30T11:22:35.820Z,861.11
2019-05-30T11:23:35.809Z,861.11
2019-05-30T11:24:35.807Z,861.07
2019-05-30T11:25:35.799Z,861.08
2019-05-30T11:26:35.809Z,861.07
2019-05-30T11:27:35.820Z,861.05
2019-05-30T11:28:35.777Z,861.08
2019-05-30T11:29:35.752Z,861.06
2019-05-30T11:30:35.739Z,861.06
2019-05-30T11:31:35.727Z,861.09
2019-05-30T11:32:35.723Z,861.05
2019-05-30T11:33:35.738Z,861.06
2019-05-30T11:34:35.697Z,861.03
2019-05-30T11:35:35.687Z,861.03
2019-05-30T11:36:35.673Z,861.10
2019-05-30T11:37:35.660Z,861.09
2019-05-30T11:38:35.685Z,861.08
2019-05-30T11:39:35.635Z,861.11
2019-05-30T11:40:35.626Z,861.18
2019-05-30T11:41:35.617Z,861.14
2019-05-30T11:42:35.605Z,861.13
2019-05-30T11:43:35.604Z,861.15
2019-05-30T11:44:35.616Z,861.18
2019-05-30T11:45:35.567Z,861.15
2019-05-30T11:46:35.554Z,861.13
2019-05-30T11:47:35.546Z,861.18
2019-05-30T11:48:35.544Z,861.16
2019-05-30T11:49:35.572Z,861.16
2019-05-30T11:50:35.554Z,861.17
2019-05-30T11:51:35.532Z,861.13
2019-05-30T11:52:35.491Z,861.15
2019-05-30T11:53:35.481Z,861.09
2019-05-30T11:54:35.507Z,861.14
2019-05-30T11:55:35.460Z,861.16
2019-05-30T11:56:35.442Z,861.13
2019-05-30T11:57:35.452Z,861.14
2019-05-30T11:58:35.423Z,861.17
2019-05-30T11:59:35.454Z,861.19
2019-05-30T12:00:35.406Z,861.20
2019-05-30T12:01:35.402Z,861.15
2019-05-30T12:02:35.381Z,861.17
2019-05-30T12:03:35.373Z,861.19
2019-05-30T12:04:35.361Z,861.20
2019-05-30T12:05:35.385Z,861.16
2019-05-30T12:06:35.346Z,861.17
2019-05-30T12:07:36.693Z,861.23
2019-05-30T12:08:35.312Z,861.23
2019-05-30T12:09:35.344Z,861.22
2019-05-30T12:10:35.299Z,861.24
2019-05-30T12:11:35.291Z,861.23
2019-05-30T12:12:35.279Z,861.23
2019-05-30T12:13:35.290Z,861.23
2019-05-30T12:14:35.288Z,861.31
2019-05-30T12:15:35.271Z,861.32
2019-05-30T12:16:35.403Z,861.29
2019-05-30T12:17:35.220Z,861.28
2019-05-30T12:18:35.210Z,861.33
2019-05-30T12:19:35.208Z,861.27
2019-05-30T12:20:35.227Z,861.29
2019-05-30T12:21:35.176Z,861.28
2019-05-30T12:22:35.167Z,861.30
2019-05-30T12:23:35.157Z,861.27
2019-05-30T12:24:35.146Z,861.27
2019-05-30T12:25:35.136Z,861.27
2019-05-30T12:26:35.156Z,861.24
2019-05-30T12:27:35.106Z,861.33
2019-05-30T12:28:35.098Z,861.29
2019-05-30T12:29:35.098Z,861.32